Wednesday, April 25, 2018, 1:02 AM GMT
Back to Local

CYSC, Sherbrooke, Que.

Location: , , Canada Lat: 45.4
Local Time: 1:02 AM GMT ( 1:02 GMT) Lon: -71.883
Time Zone: GMT Elev: 557 ft

Show me the last for .
Show Decoded

2018-04-25 00:00 METAR CYSC 250000Z AUTO 20004KT 9SM CLR 16/M05 A3009 RMK SLP196 DENSITY ALT
                 900FT =
2018-04-24 23:00 METAR CYSC 242300Z AUTO 20005KT 9SM FEW250 18/M04 A3009 RMK SLP195 DENSITY ALT
                 1100FT =
2018-04-24 22:00 METAR CYSC 242200Z AUTO 18008KT 9SM CLR 20/M03 A3010 RMK SLP199 DENSITY ALT
                 1300FT =
2018-04-24 21:00 METAR CYSC 242100Z AUTO 19008KT 160V220 9SM BKN220 BKN250 20/M04 A3011 RMK
                 SLP202 DENSITY ALT 1300FT =
2018-04-24 20:00 METAR CYSC 242000Z AUTO 17010G15KT 150V260 9SM CLR 21/M01 A3012 RMK SLP206
                 DENSITY ALT 1400FT =
2018-04-24 19:00 METAR CYSC 241900Z AUTO 18011KT 150V230 9SM CLR 21/M01 A3013 RMK SLP211 DENSITY
                 ALT 1400FT =
2018-04-24 18:00 METAR CYSC 241800Z AUTO 24009KT 160V270 9SM CLR 20/01 A3016 RMK SLP214 DENSITY
                 ALT 1300FT =
2018-04-24 17:00 METAR CYSC 241700Z AUTO 24013G18KT 220V300 9SM FEW250 20/01 A3018 RMK SLP227
                 DENSITY ALT 1200FT =
2018-04-24 16:00 METAR CYSC 241600Z AUTO 24010G19KT 180V270 9SM FEW250 19/00 A3022 RMK SLP239
                 DENSITY ALT 1000FT =
2018-04-24 15:00 METAR CYSC 241500Z AUTO 23010G16KT 200V270 9SM FEW250 18/M01 A3024 RMK SLP243
                 DENSITY ALT 900FT =
2018-04-24 14:00 METAR CYSC 241400Z AUTO 27004KT 210V290 9SM CLR 15/M02 A3026 RMK SLP253 =
2018-04-24 13:00 METAR CYSC 241300Z AUTO VRB02KT 9SM CLR 11/M02 A3027 RMK SLP256 =
2018-04-24 12:00 METAR CYSC 241200Z AUTO 00000KT 9SM CLR 07/M02 A3027 RMK SLP258 =
2018-04-24 11:00 METAR CYSC 241100Z AUTO 00000KT 01/M03 A3027 RMK CLD MISG WX MISG VIS MISG PCPN
                 MISG SLP258 =
2018-04-24 10:00 METAR CYSC 241000Z AUTO 06002KT 9SM M02/M05 A3026 RMK CLD MISG SLP255 =
2018-04-24 09:00 METAR CYSC 240900Z AUTO 12003KT 030V140 9SM 00/M05 A3026 RMK CLD MISG PCPN MISG
                 SLP254 =
2018-04-24 08:00 METAR CYSC 240800Z AUTO 08004KT 9SM CLR M01/M05 A3026 RMK SLP254 =
2018-04-24 07:00 METAR CYSC 240700Z AUTO 05002KT 9SM M02/M05 A3026 RMK CLD MISG SLP261 =
2018-04-24 06:00 METAR CYSC 240600Z AUTO 10002KT 9SM CLR RMK PCPN MISG T MISG TD MISG DENSITY ALT
                 MISG =
2018-04-24 05:00 METAR CYSC 240500Z AUTO 08004KT 9SM CLR 01/M05 A3028 RMK SLP261 =
2018-04-24 04:00 METAR CYSC 240400Z AUTO 09003KT 9SM 02/M04 A3028 RMK CLD MISG SLP265 =
2018-04-24 03:00 METAR CYSC 240300Z AUTO 08004KT 9SM CLR RMK T MISG TD MISG DENSITY ALT MISG =
2018-04-24 02:00 METAR CYSC 240200Z AUTO /////KT 9SM CLR 04/M04 A3030 RMK WND MISG SLP269 =

Support USWX by starting your Amazon purchase here.